Red Oak, Arkansas
Current Conditions -  °F | °C
As of 10:53 PM on Saturday 25 Oct 2014 (Local Time) from KHOT Reporting Station
Haze Haze  
Wind Chill: 65°   Ceiling: Unl
Heat Index: 65°   Visibility: 6mi
Dew Point: 63°   Wind: 5mph
Humidity: 93%   Direction: 320°NW
Pressure: 30.06"   Gusts: NA
Location:  34.5331°N, 93.0035°W
Report Text: KHOT 260353Z AUTO 32004KT 6SM BR CLR 18/17 A3006 RMK AO2 SLP173 T01830172
Loading
Personal Weather Stations






























Interactive Weather Map
Tropical Storm Tracking
New forecast layout! Learn more

10-Day Weather Forecast

Advertisements
Track Severe Weather on mobile